sensor_id;sensor_type;location;lat;lon;timestamp;temperature;humidity
39951;DHT22;25629;51.444;-2.606;2022-09-14T00:01:15;16.10;99.90
39951;DHT22;25629;51.444;-2.606;2022-09-14T00:03:41;16.10;99.90
39951;DHT22;25629;51.444;-2.606;2022-09-14T00:06:11;16.10;99.90
39951;DHT22;25629;51.444;-2.606;2022-09-14T00:08:38;16.10;99.90
39951;DHT22;25629;51.444;-2.606;2022-09-14T00:11:09;16.10;99.90
39951;DHT22;25629;51.444;-2.606;2022-09-14T00:13:37;16.10;99.90
39951;DHT22;25629;51.444;-2.606;2022-09-14T00:16:09;16.10;99.90
39951;DHT22;25629;51.444;-2.606;2022-09-14T00:18:36;16.10;99.90
39951;DHT22;25629;51.444;-2.606;2022-09-14T00:21:04;16.10;99.90
39951;DHT22;25629;51.444;-2.606;2022-09-14T00:23:31;16.10;99.90
39951;DHT22;25629;51.444;-2.606;2022-09-14T00:26:09;16.10;99.90
39951;DHT22;25629;51.444;-2.606;2022-09-14T00:28:42;16.10;99.90
39951;DHT22;25629;51.444;-2.606;2022-09-14T00:31:08;16.10;99.90
39951;DHT22;25629;51.444;-2.606;2022-09-14T00:33:34;16.10;99.90
39951;DHT22;25629;51.444;-2.606;2022-09-14T00:36:06;16.10;99.90
39951;DHT22;25629;51.444;-2.606;2022-09-14T00:38:33;16.00;99.90
39951;DHT22;25629;51.444;-2.606;2022-09-14T00:40:59;16.00;99.90
39951;DHT22;25629;51.444;-2.606;2022-09-14T00:43:25;16.00;99.90
39951;DHT22;25629;51.444;-2.606;2022-09-14T00:45:51;16.00;99.90
39951;DHT22;25629;51.444;-2.606;2022-09-14T00:48:18;16.00;99.90
39951;DHT22;25629;51.444;-2.606;2022-09-14T00:50:44;16.00;99.90
39951;DHT22;25629;51.444;-2.606;2022-09-14T00:53:11;16.10;99.90
39951;DHT22;25629;51.444;-2.606;2022-09-14T00:55:36;16.00;99.90
39951;DHT22;25629;51.444;-2.606;2022-09-14T00:58:02;16.00;99.90
39951;DHT22;25629;51.444;-2.606;2022-09-14T01:00:28;16.00;99.90
39951;DHT22;25629;51.444;-2.606;2022-09-14T01:02:55;15.90;99.90
39951;DHT22;25629;51.444;-2.606;2022-09-14T01:05:22;15.80;99.90
39951;DHT22;25629;51.444;-2.606;2022-09-14T01:10:38;15.90;99.90
39951;DHT22;25629;51.444;-2.606;2022-09-14T01:13:35;15.90;99.90
39951;DHT22;25629;51.444;-2.606;2022-09-14T01:19:15;15.80;99.90
39951;DHT22;25629;51.444;-2.606;2022-09-14T01:21:44;15.80;99.90
39951;DHT22;25629;51.444;-2.606;2022-09-14T01:29:43;15.90;99.90
39951;DHT22;25629;51.444;-2.606;2022-09-14T01:32:29;15.80;99.90
39951;DHT22;25629;51.444;-2.606;2022-09-14T01:35:12;15.80;99.90
39951;DHT22;25629;51.444;-2.606;2022-09-14T01:40:33;15.80;99.90
39951;DHT22;25629;51.444;-2.606;2022-09-14T01:45:48;15.80;99.90
39951;DHT22;25629;51.444;-2.606;2022-09-14T01:48:17;15.70;99.90
39951;DHT22;25629;51.444;-2.606;2022-09-14T01:50:52;15.80;99.90
39951;DHT22;25629;51.444;-2.606;2022-09-14T01:53:44;15.80;99.90
39951;DHT22;25629;51.444;-2.606;2022-09-14T01:56:23;15.80;99.90
39951;DHT22;25629;51.444;-2.606;2022-09-14T01:58:58;15.80;99.90
39951;DHT22;25629;51.444;-2.606;2022-09-14T02:01:34;15.90;99.90
39951;DHT22;25629;51.444;-2.606;2022-09-14T02:04:05;15.90;99.90
39951;DHT22;25629;51.444;-2.606;2022-09-14T02:06:36;15.90;99.90
39951;DHT22;25629;51.444;-2.606;2022-09-14T02:09:05;15.90;99.90
39951;DHT22;25629;51.444;-2.606;2022-09-14T02:11:31;15.90;99.90
39951;DHT22;25629;51.444;-2.606;2022-09-14T02:13:57;15.90;99.90
39951;DHT22;25629;51.444;-2.606;2022-09-14T02:16:23;15.80;99.90
39951;DHT22;25629;51.444;-2.606;2022-09-14T02:18:50;15.80;99.90
39951;DHT22;25629;51.444;-2.606;2022-09-14T02:21:20;15.80;99.90
39951;DHT22;25629;51.444;-2.606;2022-09-14T02:23:47;15.80;99.90
39951;DHT22;25629;51.444;-2.606;2022-09-14T02:26:17;15.80;99.90
39951;DHT22;25629;51.444;-2.606;2022-09-14T02:28:44;15.70;99.90
39951;DHT22;25629;51.444;-2.606;2022-09-14T02:39:22;15.80;99.90
39951;DHT22;25629;51.444;-2.606;2022-09-14T02:47:13;15.70;99.90
39951;DHT22;25629;51.444;-2.606;2022-09-14T02:49:49;15.70;99.90
39951;DHT22;25629;51.444;-2.606;2022-09-14T02:52:26;15.60;99.90
39951;DHT22;25629;51.444;-2.606;2022-09-14T02:57:26;15.60;99.90
39951;DHT22;25629;51.444;-2.606;2022-09-14T02:59:53;15.60;99.90
39951;DHT22;25629;51.444;-2.606;2022-09-14T03:02:19;15.60;99.90
39951;DHT22;25629;51.444;-2.606;2022-09-14T03:04:44;15.60;99.90
39951;DHT22;25629;51.444;-2.606;2022-09-14T03:07:10;15.60;99.90
39951;DHT22;25629;51.444;-2.606;2022-09-14T03:09:36;15.60;99.90
39951;DHT22;25629;51.444;-2.606;2022-09-14T03:12:01;15.60;99.90
39951;DHT22;25629;51.444;-2.606;2022-09-14T03:14:27;15.60;99.90
39951;DHT22;25629;51.444;-2.606;2022-09-14T03:16:53;15.50;99.90
39951;DHT22;25629;51.444;-2.606;2022-09-14T03:19:18;15.50;99.90
39951;DHT22;25629;51.444;-2.606;2022-09-14T03:21:44;15.30;99.90
39951;DHT22;25629;51.444;-2.606;2022-09-14T03:24:10;15.40;99.90
39951;DHT22;25629;51.444;-2.606;2022-09-14T03:26:35;15.40;99.90
39951;DHT22;25629;51.444;-2.606;2022-09-14T03:29:04;15.40;99.90
39951;DHT22;25629;51.444;-2.606;2022-09-14T03:31:31;15.40;99.90
39951;DHT22;25629;51.444;-2.606;2022-09-14T03:33:58;15.40;99.90
39951;DHT22;25629;51.444;-2.606;2022-09-14T03:36:26;15.30;99.90
39951;DHT22;25629;51.444;-2.606;2022-09-14T03:38:54;15.20;99.90
39951;DHT22;25629;51.444;-2.606;2022-09-14T03:41:21;15.10;99.90
39951;DHT22;25629;51.444;-2.606;2022-09-14T03:43:47;15.00;99.90
39951;DHT22;25629;51.444;-2.606;2022-09-14T03:46:15;15.00;99.90
39951;DHT22;25629;51.444;-2.606;2022-09-14T03:48:42;15.00;99.90
39951;DHT22;25629;51.444;-2.606;2022-09-14T03:51:10;15.00;99.90
39951;DHT22;25629;51.444;-2.606;2022-09-14T03:53:37;15.00;99.90
39951;DHT22;25629;51.444;-2.606;2022-09-14T03:56:11;15.00;99.90
39951;DHT22;25629;51.444;-2.606;2022-09-14T03:58:37;15.00;99.90
39951;DHT22;25629;51.444;-2.606;2022-09-14T04:01:08;15.00;99.90
39951;DHT22;25629;51.444;-2.606;2022-09-14T04:03:34;15.00;99.90
39951;DHT22;25629;51.444;-2.606;2022-09-14T04:06:01;15.00;99.90
39951;DHT22;25629;51.444;-2.606;2022-09-14T04:08:33;14.90;99.90
39951;DHT22;25629;51.444;-2.606;2022-09-14T04:10:59;15.00;99.90
39951;DHT22;25629;51.444;-2.606;2022-09-14T04:13:25;14.90;99.90
39951;DHT22;25629;51.444;-2.606;2022-09-14T04:16:00;14.90;99.90
39951;DHT22;25629;51.444;-2.606;2022-09-14T04:18:26;14.80;99.90
39951;DHT22;25629;51.444;-2.606;2022-09-14T04:20:53;14.80;99.90
39951;DHT22;25629;51.444;-2.606;2022-09-14T04:23:18;14.70;99.90
39951;DHT22;25629;51.444;-2.606;2022-09-14T04:25:44;14.70;99.90
39951;DHT22;25629;51.444;-2.606;2022-09-14T04:28:10;14.60;99.90
39951;DHT22;25629;51.444;-2.606;2022-09-14T04:30:35;14.60;99.90
39951;DHT22;25629;51.444;-2.606;2022-09-14T04:33:01;14.70;99.90
39951;DHT22;25629;51.444;-2.606;2022-09-14T04:35:27;14.60;99.90
39951;DHT22;25629;51.444;-2.606;2022-09-14T04:37:54;14.60;99.90
39951;DHT22;25629;51.444;-2.606;2022-09-14T04:40:19;14.60;99.90
39951;DHT22;25629;51.444;-2.606;2022-09-14T04:42:46;14.60;99.90
39951;DHT22;25629;51.444;-2.606;2022-09-14T04:45:12;14.60;99.90
39951;DHT22;25629;51.444;-2.606;2022-09-14T04:47:37;14.60;99.90
39951;DHT22;25629;51.444;-2.606;2022-09-14T04:50:04;14.60;99.90
39951;DHT22;25629;51.444;-2.606;2022-09-14T04:52:30;14.60;99.90
39951;DHT22;25629;51.444;-2.606;2022-09-14T04:54:55;14.70;99.90
39951;DHT22;25629;51.444;-2.606;2022-09-14T04:57:21;14.60;99.90
39951;DHT22;25629;51.444;-2.606;2022-09-14T04:59:47;14.60;99.90
39951;DHT22;25629;51.444;-2.606;2022-09-14T05:02:12;14.60;99.90
39951;DHT22;25629;51.444;-2.606;2022-09-14T05:04:38;14.60;99.90
39951;DHT22;25629;51.444;-2.606;2022-09-14T05:07:04;14.60;99.90
39951;DHT22;25629;51.444;-2.606;2022-09-14T05:09:29;14.60;99.90
39951;DHT22;25629;51.444;-2.606;2022-09-14T05:11:55;14.60;99.90
39951;DHT22;25629;51.444;-2.606;2022-09-14T05:14:21;14.60;99.90
39951;DHT22;25629;51.444;-2.606;2022-09-14T05:16:46;14.60;99.90
39951;DHT22;25629;51.444;-2.606;2022-09-14T05:19:14;14.60;99.90
39951;DHT22;25629;51.444;-2.606;2022-09-14T05:21:42;14.50;99.90
39951;DHT22;25629;51.444;-2.606;2022-09-14T05:24:12;14.60;99.90
39951;DHT22;25629;51.444;-2.606;2022-09-14T05:26:39;14.60;99.90
39951;DHT22;25629;51.444;-2.606;2022-09-14T05:29:05;14.60;99.90
39951;DHT22;25629;51.444;-2.606;2022-09-14T05:31:31;14.60;99.90
39951;DHT22;25629;51.444;-2.606;2022-09-14T05:33:57;14.50;99.90
39951;DHT22;25629;51.444;-2.606;2022-09-14T05:36:24;14.50;99.90
39951;DHT22;25629;51.444;-2.606;2022-09-14T05:38:50;14.40;99.90
39951;DHT22;25629;51.444;-2.606;2022-09-14T05:41:16;14.50;99.90
39951;DHT22;25629;51.444;-2.606;2022-09-14T05:43:42;14.50;99.90
39951;DHT22;25629;51.444;-2.606;2022-09-14T05:46:12;14.40;99.90
39951;DHT22;25629;51.444;-2.606;2022-09-14T05:48:39;14.30;99.90
39951;DHT22;25629;51.444;-2.606;2022-09-14T05:51:16;14.30;99.90
39951;DHT22;25629;51.444;-2.606;2022-09-14T05:53:47;14.20;99.90
39951;DHT22;25629;51.444;-2.606;2022-09-14T05:56:13;14.20;99.90
39951;DHT22;25629;51.444;-2.606;2022-09-14T05:58:40;14.10;99.90
39951;DHT22;25629;51.444;-2.606;2022-09-14T06:01:12;14.10;99.90
39951;DHT22;25629;51.444;-2.606;2022-09-14T06:03:38;14.10;99.90
39951;DHT22;25629;51.444;-2.606;2022-09-14T06:06:04;14.10;99.90
39951;DHT22;25629;51.444;-2.606;2022-09-14T06:08:31;14.00;99.90
39951;DHT22;25629;51.444;-2.606;2022-09-14T06:11:02;14.00;99.90
39951;DHT22;25629;51.444;-2.606;2022-09-14T06:13:28;14.00;99.90
39951;DHT22;25629;51.444;-2.606;2022-09-14T06:15:53;14.00;99.90
39951;DHT22;25629;51.444;-2.606;2022-09-14T06:18:20;14.00;99.90
39951;DHT22;25629;51.444;-2.606;2022-09-14T06:20:52;14.00;99.90
39951;DHT22;25629;51.444;-2.606;2022-09-14T06:23:18;14.00;99.90
39951;DHT22;25629;51.444;-2.606;2022-09-14T06:25:44;14.00;99.90
39951;DHT22;25629;51.444;-2.606;2022-09-14T06:28:09;14.00;99.90
39951;DHT22;25629;51.444;-2.606;2022-09-14T06:30:35;14.10;99.90
39951;DHT22;25629;51.444;-2.606;2022-09-14T06:33:01;14.10;99.90
39951;DHT22;25629;51.444;-2.606;2022-09-14T06:35:28;14.10;99.90
39951;DHT22;25629;51.444;-2.606;2022-09-14T06:37:54;14.20;99.90
39951;DHT22;25629;51.444;-2.606;2022-09-14T06:40:20;14.10;99.90
39951;DHT22;25629;51.444;-2.606;2022-09-14T06:42:45;14.10;99.90
39951;DHT22;25629;51.444;-2.606;2022-09-14T06:45:11;14.10;99.90
39951;DHT22;25629;51.444;-2.606;2022-09-14T06:47:37;14.10;99.90
39951;DHT22;25629;51.444;-2.606;2022-09-14T06:50:03;14.10;99.90
39951;DHT22;25629;51.444;-2.606;2022-09-14T06:52:28;14.10;99.90
39951;DHT22;25629;51.444;-2.606;2022-09-14T06:54:54;14.10;99.90
39951;DHT22;25629;51.444;-2.606;2022-09-14T06:57:20;14.20;99.90
39951;DHT22;25629;51.444;-2.606;2022-09-14T06:59:45;14.30;99.90
39951;DHT22;25629;51.444;-2.606;2022-09-14T07:02:12;14.40;99.90
39951;DHT22;25629;51.444;-2.606;2022-09-14T07:04:39;14.40;99.90
39951;DHT22;25629;51.444;-2.606;2022-09-14T07:07:04;14.50;99.90
39951;DHT22;25629;51.444;-2.606;2022-09-14T07:09:30;14.60;99.90
39951;DHT22;25629;51.444;-2.606;2022-09-14T07:11:56;14.50;99.90
39951;DHT22;25629;51.444;-2.606;2022-09-14T07:14:21;14.50;99.90
39951;DHT22;25629;51.444;-2.606;2022-09-14T07:16:47;14.60;99.90
39951;DHT22;25629;51.444;-2.606;2022-09-14T07:19:13;14.70;99.90
39951;DHT22;25629;51.444;-2.606;2022-09-14T07:21:40;14.80;99.90
39951;DHT22;25629;51.444;-2.606;2022-09-14T07:24:06;14.90;99.90
39951;DHT22;25629;51.444;-2.606;2022-09-14T07:26:41;15.00;99.90
39951;DHT22;25629;51.444;-2.606;2022-09-14T07:29:10;15.00;99.90
39951;DHT22;25629;51.444;-2.606;2022-09-14T07:31:43;15.00;99.90
39951;DHT22;25629;51.444;-2.606;2022-09-14T07:34:10;15.00;99.90
39951;DHT22;25629;51.444;-2.606;2022-09-14T07:36:36;15.00;99.90
39951;DHT22;25629;51.444;-2.606;2022-09-14T07:39:07;15.00;99.90
39951;DHT22;25629;51.444;-2.606;2022-09-14T07:41:34;15.10;99.90
39951;DHT22;25629;51.444;-2.606;2022-09-14T07:44:02;15.20;99.90
39951;DHT22;25629;51.444;-2.606;2022-09-14T07:46:30;15.30;99.90
39951;DHT22;25629;51.444;-2.606;2022-09-14T07:48:59;15.30;99.90
39951;DHT22;25629;51.444;-2.606;2022-09-14T07:51:27;15.40;99.90
39951;DHT22;25629;51.444;-2.606;2022-09-14T07:53:53;15.50;99.90
39951;DHT22;25629;51.444;-2.606;2022-09-14T07:56:19;15.50;99.90
39951;DHT22;25629;51.444;-2.606;2022-09-14T07:58:46;15.60;99.90
39951;DHT22;25629;51.444;-2.606;2022-09-14T08:01:15;15.60;99.90
39951;DHT22;25629;51.444;-2.606;2022-09-14T08:03:44;15.50;99.90
39951;DHT22;25629;51.444;-2.606;2022-09-14T08:06:22;15.40;99.90
39951;DHT22;25629;51.444;-2.606;2022-09-14T08:08:50;15.50;99.90
39951;DHT22;25629;51.444;-2.606;2022-09-14T08:11:18;15.50;99.90
39951;DHT22;25629;51.444;-2.606;2022-09-14T08:13:53;15.30;99.90
39951;DHT22;25629;51.444;-2.606;2022-09-14T08:16:19;15.30;99.90
39951;DHT22;25629;51.444;-2.606;2022-09-14T08:18:46;15.30;99.90
39951;DHT22;25629;51.444;-2.606;2022-09-14T08:21:15;15.10;99.90
39951;DHT22;25629;51.444;-2.606;2022-09-14T08:23:42;15.10;99.90
39951;DHT22;25629;51.444;-2.606;2022-09-14T08:26:10;15.20;99.90
39951;DHT22;25629;51.444;-2.606;2022-09-14T08:28:37;15.30;99.90
39951;DHT22;25629;51.444;-2.606;2022-09-14T08:31:03;15.30;99.90
39951;DHT22;25629;51.444;-2.606;2022-09-14T08:33:31;15.30;99.90
39951;DHT22;25629;51.444;-2.606;2022-09-14T08:35:58;15.40;99.90
39951;DHT22;25629;51.444;-2.606;2022-09-14T08:38:24;15.40;99.90
39951;DHT22;25629;51.444;-2.606;2022-09-14T08:40:49;15.50;99.90
39951;DHT22;25629;51.444;-2.606;2022-09-14T08:43:15;15.60;99.90
39951;DHT22;25629;51.444;-2.606;2022-09-14T08:45:43;15.80;99.90
39951;DHT22;25629;51.444;-2.606;2022-09-14T08:48:24;15.80;99.90
39951;DHT22;25629;51.444;-2.606;2022-09-14T08:50:51;15.90;99.90
39951;DHT22;25629;51.444;-2.606;2022-09-14T08:53:23;16.10;99.90
39951;DHT22;25629;51.444;-2.606;2022-09-14T08:55:59;16.40;99.90
39951;DHT22;25629;51.444;-2.606;2022-09-14T08:58:29;16.40;99.90
39951;DHT22;25629;51.444;-2.606;2022-09-14T09:06:40;16.90;99.90
39951;DHT22;25629;51.444;-2.606;2022-09-14T09:11:52;17.50;99.90
39951;DHT22;25629;51.444;-2.606;2022-09-14T09:14:36;17.90;99.90
39951;DHT22;25629;51.444;-2.606;2022-09-14T09:17:12;18.30;99.90
39951;DHT22;25629;51.444;-2.606;2022-09-14T09:22:24;18.90;99.90
39951;DHT22;25629;51.444;-2.606;2022-09-14T09:24:53;19.20;99.90
39951;DHT22;25629;51.444;-2.606;2022-09-14T09:27:21;19.30;99.90
39951;DHT22;25629;51.444;-2.606;2022-09-14T09:29:47;19.50;99.90
39951;DHT22;25629;51.444;-2.606;2022-09-14T09:32:17;19.50;99.90
39951;DHT22;25629;51.444;-2.606;2022-09-14T09:34:43;19.40;99.90
39951;DHT22;25629;51.444;-2.606;2022-09-14T09:37:12;19.50;99.90
39951;DHT22;25629;51.444;-2.606;2022-09-14T09:39:39;19.60;99.90
39951;DHT22;25629;51.444;-2.606;2022-09-14T09:42:05;19.90;99.90
39951;DHT22;25629;51.444;-2.606;2022-09-14T09:45:03;19.90;99.90
39951;DHT22;25629;51.444;-2.606;2022-09-14T09:47:34;20.20;99.90
39951;DHT22;25629;51.444;-2.606;2022-09-14T09:53:00;20.70;99.90
39951;DHT22;25629;51.444;-2.606;2022-09-14T09:55:31;20.80;99.90
39951;DHT22;25629;51.444;-2.606;2022-09-14T09:58:20;21.00;99.90
39951;DHT22;25629;51.444;-2.606;2022-09-14T10:03:32;21.00;99.90
39951;DHT22;25629;51.444;-2.606;2022-09-14T10:06:06;21.00;99.90
39951;DHT22;25629;51.444;-2.606;2022-09-14T10:08:43;21.20;99.90
39951;DHT22;25629;51.444;-2.606;2022-09-14T10:11:34;21.30;99.90
39951;DHT22;25629;51.444;-2.606;2022-09-14T10:14:03;21.40;99.90
39951;DHT22;25629;51.444;-2.606;2022-09-14T10:16:37;21.70;99.90
39951;DHT22;25629;51.444;-2.606;2022-09-14T10:19:22;21.90;99.90
39951;DHT22;25629;51.444;-2.606;2022-09-14T10:27:35;22.30;99.90
39951;DHT22;25629;51.444;-2.606;2022-09-14T10:30:03;22.20;99.90
39951;DHT22;25629;51.444;-2.606;2022-09-14T10:32:30;22.10;99.90
39951;DHT22;25629;51.444;-2.606;2022-09-14T10:34:57;22.20;99.90
39951;DHT22;25629;51.444;-2.606;2022-09-14T10:42:39;22.90;99.90
39951;DHT22;25629;51.444;-2.606;2022-09-14T10:45:36;22.90;99.90
39951;DHT22;25629;51.444;-2.606;2022-09-14T10:56:25;22.60;99.90
39951;DHT22;25629;51.444;-2.606;2022-09-14T11:01:45;23.50;99.90
39951;DHT22;25629;51.444;-2.606;2022-09-14T11:04:55;23.60;99.90
39951;DHT22;25629;51.444;-2.606;2022-09-14T11:07:27;23.80;99.90
39951;DHT22;25629;51.444;-2.606;2022-09-14T11:19:30;23.10;99.90
39951;DHT22;25629;51.444;-2.606;2022-09-14T11:25:04;23.20;99.90
39951;DHT22;25629;51.444;-2.606;2022-09-14T11:27:42;23.10;99.90
39951;DHT22;25629;51.444;-2.606;2022-09-14T11:30:20;23.00;99.90
39951;DHT22;25629;51.444;-2.606;2022-09-14T11:35:33;23.20;99.90
39951;DHT22;25629;51.444;-2.606;2022-09-14T11:38:28;23.00;99.90
39951;DHT22;25629;51.444;-2.606;2022-09-14T11:46:41;23.70;99.90
39951;DHT22;25629;51.444;-2.606;2022-09-14T11:52:21;23.80;99.90
39951;DHT22;25629;51.444;-2.606;2022-09-14T11:54:48;23.60;99.80
39951;DHT22;25629;51.444;-2.606;2022-09-14T11:57:20;23.80;99.70
39951;DHT22;25629;51.444;-2.606;2022-09-14T11:59:54;23.90;99.80
39951;DHT22;25629;51.444;-2.606;2022-09-14T12:12:43;24.70;98.90
39951;DHT22;25629;51.444;-2.606;2022-09-14T12:17:47;25.40;97.50
39951;DHT22;25629;51.444;-2.606;2022-09-14T12:20:26;25.20;97.80
39951;DHT22;25629;51.444;-2.606;2022-09-14T12:25:54;25.20;97.70
39951;DHT22;25629;51.444;-2.606;2022-09-14T12:36:08;24.80;98.90
39951;DHT22;25629;51.444;-2.606;2022-09-14T12:56:30;27.20;95.10
39951;DHT22;25629;51.444;-2.606;2022-09-14T12:59:02;27.20;96.40
39951;DHT22;25629;51.444;-2.606;2022-09-14T13:04:38;27.80;93.70
39951;DHT22;25629;51.444;-2.606;2022-09-14T13:07:13;27.60;94.50
39951;DHT22;25629;51.444;-2.606;2022-09-14T13:09:53;27.30;94.10
39951;DHT22;25629;51.444;-2.606;2022-09-14T13:12:42;27.60;93.40
39951;DHT22;25629;51.444;-2.606;2022-09-14T13:15:31;27.90;93.60
39951;DHT22;25629;51.444;-2.606;2022-09-14T13:20:52;28.00;92.90
39951;DHT22;25629;51.444;-2.606;2022-09-14T13:23:23;28.30;92.70
39951;DHT22;25629;51.444;-2.606;2022-09-14T13:25:51;28.40;92.20
39951;DHT22;25629;51.444;-2.606;2022-09-14T13:28:18;28.30;92.30
39951;DHT22;25629;51.444;-2.606;2022-09-14T13:30:58;28.80;92.10
39951;DHT22;25629;51.444;-2.606;2022-09-14T13:33:24;28.50;91.10
39951;DHT22;25629;51.444;-2.606;2022-09-14T13:35:56;27.70;91.90
39951;DHT22;25629;51.444;-2.606;2022-09-14T13:38:26;27.40;92.30
39951;DHT22;25629;51.444;-2.606;2022-09-14T13:41:02;27.70;92.00
39951;DHT22;25629;51.444;-2.606;2022-09-14T13:43:29;28.10;91.70
39951;DHT22;25629;51.444;-2.606;2022-09-14T13:45:55;28.00;92.70
39951;DHT22;25629;51.444;-2.606;2022-09-14T13:48:21;28.60;92.80
39951;DHT22;25629;51.444;-2.606;2022-09-14T13:50:49;29.20;90.60
39951;DHT22;25629;51.444;-2.606;2022-09-14T13:56:23;28.40;90.50
39951;DHT22;25629;51.444;-2.606;2022-09-14T14:01:52;27.70;90.80
39951;DHT22;25629;51.444;-2.606;2022-09-14T14:07:04;27.60;90.80
39951;DHT22;25629;51.444;-2.606;2022-09-14T14:09:46;28.10;90.50
39951;DHT22;25629;51.444;-2.606;2022-09-14T14:12:27;28.80;90.00
39951;DHT22;25629;51.444;-2.606;2022-09-14T14:15:26;29.20;89.50
39951;DHT22;25629;51.444;-2.606;2022-09-14T14:17:50;30.10;88.00
39951;DHT22;25629;51.444;-2.606;2022-09-14T14:23:17;30.50;86.80
39951;DHT22;25629;51.444;-2.606;2022-09-14T14:25:51;30.60;87.30
39951;DHT22;25629;51.444;-2.606;2022-09-14T14:28:27;30.80;86.30
39951;DHT22;25629;51.444;-2.606;2022-09-14T14:30:59;30.90;86.10
39951;DHT22;25629;51.444;-2.606;2022-09-14T14:33:26;31.00;86.40
39951;DHT22;25629;51.444;-2.606;2022-09-14T14:35:54;31.50;84.80
39951;DHT22;25629;51.444;-2.606;2022-09-14T14:38:22;31.60;84.50
39951;DHT22;25629;51.444;-2.606;2022-09-14T14:40:49;31.60;84.60
39951;DHT22;25629;51.444;-2.606;2022-09-14T14:43:18;31.60;83.60
39951;DHT22;25629;51.444;-2.606;2022-09-14T14:45:45;31.50;83.50
39951;DHT22;25629;51.444;-2.606;2022-09-14T14:48:11;31.50;82.60
39951;DHT22;25629;51.444;-2.606;2022-09-14T14:50:38;31.50;82.90
39951;DHT22;25629;51.444;-2.606;2022-09-14T14:53:04;31.70;83.70
39951;DHT22;25629;51.444;-2.606;2022-09-14T14:55:31;31.50;82.10
39951;DHT22;25629;51.444;-2.606;2022-09-14T14:58:00;31.70;82.90
39951;DHT22;25629;51.444;-2.606;2022-09-14T15:00:31;31.90;82.30
39951;DHT22;25629;51.444;-2.606;2022-09-14T15:02:58;32.30;81.90
39951;DHT22;25629;51.444;-2.606;2022-09-14T15:05:24;32.60;80.70
39951;DHT22;25629;51.444;-2.606;2022-09-14T15:07:50;32.10;81.50
39951;DHT22;25629;51.444;-2.606;2022-09-14T15:10:21;32.40;80.50
39951;DHT22;25629;51.444;-2.606;2022-09-14T15:12:47;32.20;80.40
39951;DHT22;25629;51.444;-2.606;2022-09-14T15:15:22;32.00;79.80
39951;DHT22;25629;51.444;-2.606;2022-09-14T15:17:48;31.90;79.50
39951;DHT22;25629;51.444;-2.606;2022-09-14T15:20:15;31.70;78.90
39951;DHT22;25629;51.444;-2.606;2022-09-14T15:22:41;31.50;79.90
39951;DHT22;25629;51.444;-2.606;2022-09-14T15:25:08;31.40;80.40
39951;DHT22;25629;51.444;-2.606;2022-09-14T15:27:34;31.50;80.70
39951;DHT22;25629;51.444;-2.606;2022-09-14T15:30:00;32.00;79.10
39951;DHT22;25629;51.444;-2.606;2022-09-14T15:32:27;32.60;78.20
39951;DHT22;25629;51.444;-2.606;2022-09-14T15:34:52;32.60;78.60
39951;DHT22;25629;51.444;-2.606;2022-09-14T15:37:19;32.80;77.00
39951;DHT22;25629;51.444;-2.606;2022-09-14T15:39:44;32.00;77.50
39951;DHT22;25629;51.444;-2.606;2022-09-14T15:42:12;31.50;78.10
39951;DHT22;25629;51.444;-2.606;2022-09-14T15:44:39;30.80;78.90
39951;DHT22;25629;51.444;-2.606;2022-09-14T15:47:05;30.40;79.50
39951;DHT22;25629;51.444;-2.606;2022-09-14T15:49:30;30.40;80.00
39951;DHT22;25629;51.444;-2.606;2022-09-14T15:51:56;31.20;79.20
39951;DHT22;25629;51.444;-2.606;2022-09-14T15:54:24;31.70;78.80
39951;DHT22;25629;51.444;-2.606;2022-09-14T15:56:55;31.80;78.00
39951;DHT22;25629;51.444;-2.606;2022-09-14T15:59:21;32.00;78.00
39951;DHT22;25629;51.444;-2.606;2022-09-14T16:01:47;32.10;77.70
39951;DHT22;25629;51.444;-2.606;2022-09-14T16:04:13;32.30;77.60
39951;DHT22;25629;51.444;-2.606;2022-09-14T16:06:39;32.40;78.10
39951;DHT22;25629;51.444;-2.606;2022-09-14T16:09:07;32.60;76.90
39951;DHT22;25629;51.444;-2.606;2022-09-14T16:11:34;32.30;78.20
39951;DHT22;25629;51.444;-2.606;2022-09-14T16:14:01;32.40;77.50
39951;DHT22;25629;51.444;-2.606;2022-09-14T16:16:27;31.90;78.00
39951;DHT22;25629;51.444;-2.606;2022-09-14T16:18:52;31.90;77.00
39951;DHT22;25629;51.444;-2.606;2022-09-14T16:21:21;31.60;77.30
39951;DHT22;25629;51.444;-2.606;2022-09-14T16:23:52;31.70;77.50
39951;DHT22;25629;51.444;-2.606;2022-09-14T16:26:21;31.50;77.80
39951;DHT22;25629;51.444;-2.606;2022-09-14T16:28:48;31.80;78.20
39951;DHT22;25629;51.444;-2.606;2022-09-14T16:31:17;32.30;77.10
39951;DHT22;25629;51.444;-2.606;2022-09-14T16:33:45;32.30;76.70
39951;DHT22;25629;51.444;-2.606;2022-09-14T16:36:15;32.00;76.80
39951;DHT22;25629;51.444;-2.606;2022-09-14T16:38:41;32.00;77.50
39951;DHT22;25629;51.444;-2.606;2022-09-14T16:41:08;31.90;77.40
39951;DHT22;25629;51.444;-2.606;2022-09-14T16:43:34;32.00;77.30
39951;DHT22;25629;51.444;-2.606;2022-09-14T16:46:18;31.50;77.30
39951;DHT22;25629;51.444;-2.606;2022-09-14T16:48:45;31.00;78.40
39951;DHT22;25629;51.444;-2.606;2022-09-14T16:51:13;31.10;78.90
39951;DHT22;25629;51.444;-2.606;2022-09-14T16:53:41;30.60;80.20
39951;DHT22;25629;51.444;-2.606;2022-09-14T16:56:12;30.10;81.00
39951;DHT22;25629;51.444;-2.606;2022-09-14T16:58:40;29.40;82.40
39951;DHT22;25629;51.444;-2.606;2022-09-14T17:03:40;27.10;86.50
39951;DHT22;25629;51.444;-2.606;2022-09-14T17:06:09;25.90;89.10
39951;DHT22;25629;51.444;-2.606;2022-09-14T17:08:36;25.00;90.60
39951;DHT22;25629;51.444;-2.606;2022-09-14T17:11:02;24.80;91.20
39951;DHT22;25629;51.444;-2.606;2022-09-14T17:13:29;25.10;92.00
39951;DHT22;25629;51.444;-2.606;2022-09-14T17:16:00;25.30;92.20
39951;DHT22;25629;51.444;-2.606;2022-09-14T17:18:26;25.00;92.60
39951;DHT22;25629;51.444;-2.606;2022-09-14T17:21:02;24.60;93.30
39951;DHT22;25629;51.444;-2.606;2022-09-14T17:23:28;23.80;94.50
39951;DHT22;25629;51.444;-2.606;2022-09-14T17:25:54;23.20;95.90
39951;DHT22;25629;51.444;-2.606;2022-09-14T17:28:22;22.70;96.70
39951;DHT22;25629;51.444;-2.606;2022-09-14T17:30:52;22.40;97.90
39951;DHT22;25629;51.444;-2.606;2022-09-14T17:33:19;22.00;99.10
39951;DHT22;25629;51.444;-2.606;2022-09-14T17:35:54;21.60;99.90
39951;DHT22;25629;51.444;-2.606;2022-09-14T17:38:21;21.40;99.90
39951;DHT22;25629;51.444;-2.606;2022-09-14T17:40:47;21.30;99.90
39951;DHT22;25629;51.444;-2.606;2022-09-14T17:43:14;21.20;99.90
39951;DHT22;25629;51.444;-2.606;2022-09-14T17:45:53;21.00;99.90
39951;DHT22;25629;51.444;-2.606;2022-09-14T17:48:20;21.00;99.90
39951;DHT22;25629;51.444;-2.606;2022-09-14T17:50:46;21.00;99.90
39951;DHT22;25629;51.444;-2.606;2022-09-14T17:53:12;21.00;99.90
39951;DHT22;25629;51.444;-2.606;2022-09-14T17:55:38;20.80;99.90
39951;DHT22;25629;51.444;-2.606;2022-09-14T17:58:03;20.70;99.90
39951;DHT22;25629;51.444;-2.606;2022-09-14T18:00:29;20.50;99.90
39951;DHT22;25629;51.444;-2.606;2022-09-14T18:02:55;20.40;99.90
39951;DHT22;25629;51.444;-2.606;2022-09-14T18:05:21;20.30;99.90